HAZ2630 ZPPP-ZSHC
Flight info
| Callsign | HAZ2630 |
|---|---|
| Flight time | 2h 30m |
| Altitude | 37100 |
| Route | NODIB4Q NODIB W137 LPS A581 IDGAG W80 XSH DCT JDZ DCT TXN G204 OREXA OREXA81 |
| Aircraft | E75L/M-SDE3GILORVW/S |
Departure
| Time | 2026-05-04 12:29 |
|---|---|
| Airport | Kunming Changshui International Airport (ZPPP) |
Arrival
| Time | 2026-05-04 15:00 |
|---|---|
| Airport | Hangzhou Xiaoshan International Airport (ZSHC) |
| Time | Latitude | Longitude | Altitude | Speed | Heading |
|---|---|---|---|---|---|
| 2026-05-04 11:43 | 25.10988 | 102.93857 | 6910 ft | 0 kts | 38° |
| 2026-05-04 11:45 | 25.11038 | 102.93743 | 6910 ft | 0 kts | 38° |
| 2026-05-04 12:12 | 25.11038 | 102.93744 | 6910 ft | 0 kts | 38° |
| 2026-05-04 12:12 | 25.11037 | 102.93742 | 6910 ft | 0 kts | 66° |
| 2026-05-04 12:12 | 25.11033 | 102.93731 | 6910 ft | 1 kts | 53° |
| 2026-05-04 12:13 | 25.11019 | 102.93718 | 6910 ft | 2 kts | 38° |
| 2026-05-04 12:14 | 25.10969 | 102.93714 | 6910 ft | 0 kts | 308° |
| 2026-05-04 12:15 | 25.10974 | 102.93703 | 6910 ft | 4 kts | 296° |
| 2026-05-04 12:16 | 25.10988 | 102.93671 | 6910 ft | 4 kts | 299° |
| 2026-05-04 12:16 | 25.11007 | 102.93642 | 6910 ft | 4 kts | 307° |
| 2026-05-04 12:16 | 25.11028 | 102.93613 | 6910 ft | 4 kts | 309° |
| 2026-05-04 12:16 | 25.11050 | 102.93583 | 6910 ft | 5 kts | 309° |
| 2026-05-04 12:17 | 25.11072 | 102.93552 | 6910 ft | 5 kts | 308° |
| 2026-05-04 12:17 | 25.11098 | 102.93516 | 6910 ft | 7 kts | 308° |
| 2026-05-04 12:17 | 25.11130 | 102.93471 | 6910 ft | 8 kts | 309° |
| 2026-05-04 12:17 | 25.11167 | 102.93420 | 6910 ft | 8 kts | 308° |
| 2026-05-04 12:18 | 25.11206 | 102.93366 | 6910 ft | 9 kts | 308° |
| 2026-05-04 12:18 | 25.11249 | 102.93306 | 6910 ft | 11 kts | 308° |
| 2026-05-04 12:18 | 25.11309 | 102.93224 | 6910 ft | 14 kts | 309° |
| 2026-05-04 12:18 | 25.11371 | 102.93137 | 6910 ft | 14 kts | 308° |
| 2026-05-04 12:19 | 25.11432 | 102.93053 | 6910 ft | 11 kts | 308° |
| 2026-05-04 12:19 | 25.11502 | 102.93052 | 6910 ft | 11 kts | 37° |
| 2026-05-04 12:19 | 25.11572 | 102.93112 | 6910 ft | 13 kts | 39° |
| 2026-05-04 12:19 | 25.11646 | 102.93177 | 6910 ft | 13 kts | 38° |
| 2026-05-04 12:20 | 25.11720 | 102.93240 | 6910 ft | 13 kts | 38° |
| 2026-05-04 12:20 | 25.11796 | 102.93307 | 6910 ft | 13 kts | 38° |
| 2026-05-04 12:20 | 25.11872 | 102.93373 | 6910 ft | 14 kts | 38° |
| 2026-05-04 12:20 | 25.11949 | 102.93439 | 6910 ft | 14 kts | 38° |
| 2026-05-04 12:21 | 25.12027 | 102.93507 | 6910 ft | 14 kts | 39° |
| 2026-05-04 12:21 | 25.12106 | 102.93577 | 6910 ft | 14 kts | 38° |
| 2026-05-04 12:21 | 25.12186 | 102.93646 | 6910 ft | 14 kts | 38° |
| 2026-05-04 12:21 | 25.12268 | 102.93716 | 6910 ft | 14 kts | 38° |
| 2026-05-04 12:22 | 25.12349 | 102.93787 | 6910 ft | 15 kts | 38° |
| 2026-05-04 12:22 | 25.12432 | 102.93859 | 6910 ft | 15 kts | 38° |
| 2026-05-04 12:22 | 25.12515 | 102.93930 | 6910 ft | 15 kts | 38° |
| 2026-05-04 12:22 | 25.12599 | 102.94005 | 6910 ft | 15 kts | 40° |
| 2026-05-04 12:23 | 25.12682 | 102.94080 | 6910 ft | 15 kts | 37° |
| 2026-05-04 12:23 | 25.12769 | 102.94154 | 6910 ft | 15 kts | 38° |
| 2026-05-04 12:23 | 25.12855 | 102.94228 | 6910 ft | 15 kts | 38° |
| 2026-05-04 12:23 | 25.12929 | 102.94282 | 6910 ft | 11 kts | 2° |
| 2026-05-04 12:24 | 25.12968 | 102.94259 | 6910 ft | 0 kts | 311° |
| 2026-05-04 12:25 | 25.12969 | 102.94257 | 6910 ft | 0 kts | 310° |
| 2026-05-04 12:25 | 25.12978 | 102.94246 | 6910 ft | 5 kts | 310° |
| 2026-05-04 12:25 | 25.13009 | 102.94205 | 6910 ft | 7 kts | 309° |
| 2026-05-04 12:26 | 25.13029 | 102.94154 | 6910 ft | 7 kts | 259° |
| 2026-05-04 12:26 | 25.13009 | 102.94124 | 6910 ft | 0 kts | 220° |
| 2026-05-04 12:28 | 25.12986 | 102.94102 | 6910 ft | 11 kts | 220° |
| 2026-05-04 12:28 | 25.12870 | 102.94002 | 6910 ft | 41 kts | 217° |
| 2026-05-04 12:28 | 25.12495 | 102.93675 | 6910 ft | 95 kts | 218° |
| 2026-05-04 12:28 | 25.11842 | 102.93106 | 6910 ft | 140 kts | 218° |
| 2026-05-04 12:29 | 25.10994 | 102.92366 | 7032 ft | 162 kts | 219° |
| 2026-05-04 12:29 | 25.10089 | 102.91576 | 7343 ft | 173 kts | 220° |
| 2026-05-04 12:29 | 25.09293 | 102.90558 | 7828 ft | 176 kts | 236° |
| 2026-05-04 12:29 | 25.08625 | 102.89468 | 8428 ft | 172 kts | 237° |
| 2026-05-04 12:30 | 25.07960 | 102.88339 | 8798 ft | 183 kts | 238° |
| 2026-05-04 12:30 | 25.07267 | 102.87151 | 9277 ft | 186 kts | 237° |
| 2026-05-04 12:30 | 25.06555 | 102.85948 | 9705 ft | 193 kts | 237° |
| 2026-05-04 12:30 | 25.05769 | 102.84684 | 10056 ft | 203 kts | 235° |
| 2026-05-04 12:31 | 25.04922 | 102.83427 | 10452 ft | 212 kts | 234° |
| 2026-05-04 12:31 | 25.03988 | 102.82066 | 10715 ft | 229 kts | 235° |
| 2026-05-04 12:31 | 25.03005 | 102.80590 | 10980 ft | 246 kts | 236° |
| 2026-05-04 12:31 | 25.01929 | 102.79013 | 11054 ft | 272 kts | 233° |
| 2026-05-04 12:32 | 25.00703 | 102.77333 | 11481 ft | 281 kts | 232° |
| 2026-05-04 12:32 | 24.97919 | 102.74418 | 12919 ft | 282 kts | 209° |
| 2026-05-04 12:32 | 24.95980 | 102.74017 | 13472 ft | 296 kts | 180° |
| 2026-05-04 12:33 | 24.93953 | 102.74742 | 13562 ft | 327 kts | 147° |
| 2026-05-04 12:33 | 24.92454 | 102.76636 | 14247 ft | 330 kts | 116° |
| 2026-05-04 12:33 | 24.91883 | 102.78883 | 14948 ft | 324 kts | 104° |
| 2026-05-04 12:33 | 24.91138 | 102.81184 | 15585 ft | 322 kts | 116° |
| 2026-05-04 12:34 | 24.90122 | 102.83382 | 16103 ft | 324 kts | 121° |
| 2026-05-04 12:34 | 24.89000 | 102.85531 | 16555 ft | 328 kts | 122° |
| 2026-05-04 12:34 | 24.87813 | 102.87699 | 17008 ft | 331 kts | 123° |
| 2026-05-04 12:34 | 24.86607 | 102.89860 | 17473 ft | 334 kts | 123° |
| 2026-05-04 12:35 | 24.85374 | 102.92051 | 17742 ft | 345 kts | 123° |
| 2026-05-04 12:35 | 24.84072 | 102.94357 | 17761 ft | 365 kts | 123° |
| 2026-05-04 12:35 | 24.82709 | 102.96767 | 17835 ft | 380 kts | 123° |
| 2026-05-04 12:35 | 24.81483 | 102.99393 | 17831 ft | 397 kts | 104° |
| 2026-05-04 12:36 | 24.81296 | 103.02447 | 18181 ft | 397 kts | 78° |
| 2026-05-04 12:36 | 24.82246 | 103.05232 | 18697 ft | 387 kts | 52° |
| 2026-05-04 12:36 | 24.84074 | 103.07284 | 19198 ft | 374 kts | 30° |
| 2026-05-04 12:36 | 24.86230 | 103.08892 | 19673 ft | 374 kts | 29° |
| 2026-05-04 12:37 | 24.88398 | 103.10532 | 20078 ft | 377 kts | 30° |
| 2026-05-04 12:37 | 24.90542 | 103.12168 | 20456 ft | 380 kts | 30° |
| 2026-05-04 12:37 | 24.92738 | 103.13850 | 20850 ft | 382 kts | 30° |
| 2026-05-04 12:37 | 24.94935 | 103.15535 | 21248 ft | 384 kts | 30° |
| 2026-05-04 12:38 | 24.97140 | 103.17228 | 21639 ft | 386 kts | 30° |
| 2026-05-04 12:38 | 24.99351 | 103.18926 | 22002 ft | 388 kts | 30° |
| 2026-05-04 12:38 | 25.01551 | 103.20616 | 22353 ft | 390 kts | 30° |
| 2026-05-04 12:38 | 25.03797 | 103.22342 | 22697 ft | 393 kts | 30° |
| 2026-05-04 12:39 | 25.06059 | 103.24082 | 23032 ft | 396 kts | 30° |
| 2026-05-04 12:39 | 25.08321 | 103.25822 | 23357 ft | 398 kts | 30° |
| 2026-05-04 12:39 | 25.10593 | 103.27571 | 23692 ft | 400 kts | 29° |
| 2026-05-04 12:39 | 25.12886 | 103.29336 | 24023 ft | 403 kts | 29° |
| 2026-05-04 12:40 | 25.15217 | 103.31132 | 24355 ft | 405 kts | 29° |
| 2026-05-04 12:40 | 25.17506 | 103.32897 | 24663 ft | 407 kts | 29° |
| 2026-05-04 12:40 | 25.19854 | 103.34708 | 24983 ft | 410 kts | 29° |
| 2026-05-04 12:40 | 25.22200 | 103.36517 | 25188 ft | 415 kts | 29° |
| 2026-05-04 12:41 | 25.24573 | 103.38349 | 25213 ft | 424 kts | 29° |
| 2026-05-04 12:41 | 25.27038 | 103.40252 | 25240 ft | 428 kts | 29° |
| 2026-05-04 12:41 | 25.29435 | 103.42108 | 25223 ft | 415 kts | 29° |
| 2026-05-04 12:41 | 25.31721 | 103.43878 | 25259 ft | 393 kts | 28° |
| 2026-05-04 12:42 | 25.33915 | 103.45574 | 25200 ft | 378 kts | 28° |
| 2026-05-04 12:42 | 25.36075 | 103.47242 | 25408 ft | 381 kts | 28° |
| 2026-05-04 12:42 | 25.38275 | 103.48944 | 25582 ft | 385 kts | 28° |
| 2026-05-04 12:42 | 25.40470 | 103.50642 | 25722 ft | 390 kts | 28° |
| 2026-05-04 12:43 | 25.42706 | 103.52374 | 25799 ft | 399 kts | 28° |
| 2026-05-04 12:43 | 25.45022 | 103.54170 | 25953 ft | 406 kts | 28° |
| 2026-05-04 12:43 | 25.47326 | 103.55957 | 26125 ft | 410 kts | 28° |
| 2026-05-04 12:43 | 25.49668 | 103.57776 | 26307 ft | 411 kts | 28° |
| 2026-05-04 12:44 | 25.52022 | 103.59615 | 26499 ft | 418 kts | 31° |
| 2026-05-04 12:44 | 25.54044 | 103.62045 | 26679 ft | 436 kts | 50° |
| 2026-05-04 12:44 | 25.55704 | 103.64854 | 26965 ft | 439 kts | 52° |
| 2026-05-04 12:44 | 25.57368 | 103.67706 | 27212 ft | 441 kts | 52° |
| 2026-05-04 12:45 | 25.59029 | 103.70562 | 27446 ft | 444 kts | 52° |
| 2026-05-04 12:45 | 25.60707 | 103.73448 | 27649 ft | 447 kts | 52° |
| 2026-05-04 12:45 | 25.62384 | 103.76335 | 27846 ft | 450 kts | 52° |
| 2026-05-04 12:45 | 25.64075 | 103.79249 | 28061 ft | 453 kts | 52° |
| 2026-05-04 12:46 | 25.65771 | 103.82174 | 28261 ft | 455 kts | 52° |
| 2026-05-04 12:46 | 25.67486 | 103.85131 | 28472 ft | 457 kts | 52° |
| 2026-05-04 12:46 | 25.69157 | 103.88016 | 28670 ft | 460 kts | 52° |
| 2026-05-04 12:46 | 25.70887 | 103.91003 | 28873 ft | 462 kts | 52° |
| 2026-05-04 12:47 | 25.72626 | 103.94009 | 29079 ft | 464 kts | 52° |
| 2026-05-04 12:47 | 25.74357 | 103.97002 | 29279 ft | 465 kts | 52° |
| 2026-05-04 12:47 | 25.76113 | 104.00041 | 29478 ft | 467 kts | 52° |
| 2026-05-04 12:47 | 25.77879 | 104.03099 | 29675 ft | 468 kts | 52° |
| 2026-05-04 12:48 | 25.79627 | 104.06128 | 29869 ft | 469 kts | 52° |
| 2026-05-04 12:48 | 25.81379 | 104.09112 | 30060 ft | 470 kts | 51° |
| 2026-05-04 12:48 | 25.83166 | 104.12148 | 30259 ft | 471 kts | 51° |
| 2026-05-04 12:48 | 25.84972 | 104.15221 | 30460 ft | 472 kts | 51° |
| 2026-05-04 12:49 | 25.86752 | 104.18253 | 30657 ft | 473 kts | 51° |
| 2026-05-04 12:49 | 25.88562 | 104.21336 | 30857 ft | 474 kts | 51° |
| 2026-05-04 12:49 | 25.90363 | 104.24406 | 31050 ft | 474 kts | 51° |
| 2026-05-04 12:49 | 25.92161 | 104.27474 | 31240 ft | 475 kts | 51° |
| 2026-05-04 12:50 | 25.93963 | 104.30552 | 31441 ft | 475 kts | 51° |
| 2026-05-04 12:50 | 25.95764 | 104.33628 | 31635 ft | 476 kts | 51° |
| 2026-05-04 12:50 | 25.97574 | 104.36722 | 31831 ft | 476 kts | 51° |
| 2026-05-04 12:50 | 25.99354 | 104.39769 | 32001 ft | 477 kts | 51° |
| 2026-05-04 12:51 | 26.01178 | 104.42884 | 32151 ft | 477 kts | 49° |
| 2026-05-04 12:51 | 26.03216 | 104.45753 | 32309 ft | 469 kts | 40° |
| 2026-05-04 12:51 | 26.05557 | 104.48183 | 32469 ft | 461 kts | 31° |
| 2026-05-04 12:51 | 26.08060 | 104.50474 | 32662 ft | 462 kts | 32° |
| 2026-05-04 12:52 | 26.10405 | 104.52641 | 32842 ft | 463 kts | 32° |
| 2026-05-04 12:52 | 26.13005 | 104.55052 | 33048 ft | 464 kts | 32° |
| 2026-05-04 12:52 | 26.15496 | 104.57365 | 33242 ft | 465 kts | 32° |
| 2026-05-04 12:52 | 26.17991 | 104.59683 | 33437 ft | 465 kts | 32° |
| 2026-05-04 12:53 | 26.20490 | 104.62006 | 33632 ft | 466 kts | 32° |
| 2026-05-04 12:53 | 26.23000 | 104.64342 | 33827 ft | 466 kts | 32° |
| 2026-05-04 12:53 | 26.25506 | 104.66674 | 34007 ft | 467 kts | 32° |
| 2026-05-04 12:53 | 26.28007 | 104.69004 | 34175 ft | 468 kts | 32° |
| 2026-05-04 12:54 | 26.30486 | 104.71314 | 34343 ft | 468 kts | 32° |
| 2026-05-04 12:54 | 26.32985 | 104.73645 | 34510 ft | 468 kts | 32° |
| 2026-05-04 12:54 | 26.35510 | 104.76000 | 34685 ft | 469 kts | 32° |
| 2026-05-04 12:54 | 26.38000 | 104.78324 | 34853 ft | 469 kts | 32° |
| 2026-05-04 12:55 | 26.40530 | 104.80688 | 35027 ft | 469 kts | 32° |
| 2026-05-04 12:55 | 26.43014 | 104.83010 | 35197 ft | 469 kts | 32° |
| 2026-05-04 12:55 | 26.45510 | 104.85343 | 35365 ft | 469 kts | 32° |
| 2026-05-04 12:55 | 26.48001 | 104.87677 | 35513 ft | 459 kts | 32° |
| 2026-05-04 12:56 | 26.50451 | 104.89969 | 35687 ft | 459 kts | 32° |
| 2026-05-04 12:56 | 26.52904 | 104.92268 | 35956 ft | 457 kts | 32° |
| 2026-05-04 12:56 | 26.55345 | 104.94556 | 36179 ft | 456 kts | 32° |
| 2026-05-04 12:56 | 26.57751 | 104.96811 | 36377 ft | 455 kts | 32° |
| 2026-05-04 12:57 | 26.60169 | 104.99081 | 36572 ft | 454 kts | 31° |
| 2026-05-04 12:57 | 26.62561 | 105.01485 | 36711 ft | 461 kts | 39° |
| 2026-05-04 12:57 | 26.64611 | 105.04288 | 36837 ft | 471 kts | 48° |
| 2026-05-04 12:58 | 26.67615 | 105.10947 | 37101 ft | 484 kts | 61° |
| 2026-05-04 12:58 | 26.68933 | 105.14362 | 37256 ft | 483 kts | 59° |
| 2026-05-04 12:58 | 26.70295 | 105.17786 | 37326 ft | 482 kts | 59° |
| 2026-05-04 12:59 | 26.73065 | 105.24696 | 37331 ft | 489 kts | 59° |
| 2026-05-04 12:59 | 26.75873 | 105.31703 | 37349 ft | 495 kts | 59° |
| 2026-05-04 13:00 | 26.78684 | 105.38730 | 37362 ft | 501 kts | 59° |
| 2026-05-04 13:00 | 26.81562 | 105.45937 | 37377 ft | 506 kts | 59° |
| 2026-05-04 13:01 | 26.84430 | 105.53128 | 37365 ft | 512 kts | 59° |
| 2026-05-04 13:01 | 26.87341 | 105.60447 | 37357 ft | 508 kts | 59° |
| 2026-05-04 13:02 | 26.90215 | 105.67678 | 37343 ft | 508 kts | 60° |
| 2026-05-04 13:02 | 26.93097 | 105.74947 | 37342 ft | 508 kts | 60° |
| 2026-05-04 13:03 | 26.95962 | 105.82187 | 37333 ft | 509 kts | 60° |
| 2026-05-04 13:03 | 26.98825 | 105.89432 | 37323 ft | 509 kts | 59° |
| 2026-05-04 13:04 | 27.01676 | 105.96661 | 37324 ft | 506 kts | 60° |
| 2026-05-04 13:04 | 27.04550 | 106.03913 | 37318 ft | 507 kts | 57° |
| 2026-05-04 13:05 | 27.07789 | 106.10911 | 37316 ft | 504 kts | 56° |
| 2026-05-04 13:05 | 27.10996 | 106.17924 | 37324 ft | 505 kts | 56° |
| 2026-05-04 13:06 | 27.14189 | 106.24925 | 37327 ft | 506 kts | 56° |
| 2026-05-04 13:06 | 27.17401 | 106.31981 | 37322 ft | 504 kts | 56° |
| 2026-05-04 13:07 | 27.20592 | 106.38998 | 37315 ft | 506 kts | 56° |
| 2026-05-04 13:07 | 27.23812 | 106.46086 | 37308 ft | 507 kts | 56° |
| 2026-05-04 13:08 | 27.26993 | 106.53097 | 37298 ft | 507 kts | 56° |
| 2026-05-04 13:08 | 27.30199 | 106.60175 | 37296 ft | 506 kts | 56° |
| 2026-05-04 13:09 | 27.33380 | 106.67211 | 37278 ft | 507 kts | 56° |
| 2026-05-04 13:09 | 27.36574 | 106.74290 | 37275 ft | 505 kts | 56° |
| 2026-05-04 13:10 | 27.39758 | 106.81388 | 37277 ft | 507 kts | 56° |
| 2026-05-04 13:10 | 27.42929 | 106.88474 | 37277 ft | 506 kts | 56° |
| 2026-05-04 13:11 | 27.46093 | 106.95556 | 37279 ft | 507 kts | 56° |
| 2026-05-04 13:11 | 27.49281 | 107.02642 | 37280 ft | 506 kts | 56° |
| 2026-05-04 13:12 | 27.52484 | 107.09724 | 37282 ft | 506 kts | 56° |
| 2026-05-04 13:12 | 27.55670 | 107.16780 | 37281 ft | 508 kts | 56° |
| 2026-05-04 13:13 | 27.58862 | 107.23859 | 37277 ft | 508 kts | 56° |
| 2026-05-04 13:13 | 27.62073 | 107.30985 | 37277 ft | 509 kts | 56° |
| 2026-05-04 13:14 | 27.65274 | 107.38100 | 37274 ft | 508 kts | 56° |
| 2026-05-04 13:14 | 27.68472 | 107.45222 | 37272 ft | 509 kts | 56° |
| 2026-05-04 13:15 | 27.71668 | 107.52354 | 37265 ft | 506 kts | 56° |
| 2026-05-04 13:15 | 27.74856 | 107.59475 | 37271 ft | 510 kts | 56° |
| 2026-05-04 13:16 | 27.78039 | 107.66601 | 37263 ft | 510 kts | 56° |
| 2026-05-04 13:16 | 27.81227 | 107.73749 | 37261 ft | 509 kts | 56° |
| 2026-05-04 13:17 | 27.84445 | 107.80877 | 37251 ft | 510 kts | 56° |
| 2026-05-04 13:17 | 27.87694 | 107.87983 | 37237 ft | 509 kts | 56° |
| 2026-05-04 13:18 | 27.90954 | 107.95127 | 37226 ft | 510 kts | 55° |
| 2026-05-04 13:18 | 27.94208 | 108.02269 | 37223 ft | 511 kts | 55° |
| 2026-05-04 13:19 | 27.97471 | 108.09446 | 37222 ft | 512 kts | 55° |
| 2026-05-04 13:19 | 28.00735 | 108.16637 | 37220 ft | 511 kts | 55° |
| 2026-05-04 13:20 | 28.03980 | 108.23795 | 37217 ft | 512 kts | 55° |
| 2026-05-04 13:20 | 28.07224 | 108.30969 | 37215 ft | 513 kts | 55° |
| 2026-05-04 13:21 | 28.10455 | 108.38123 | 37215 ft | 511 kts | 55° |
| 2026-05-04 13:21 | 28.13682 | 108.45283 | 37223 ft | 511 kts | 56° |
| 2026-05-04 13:22 | 28.16917 | 108.52470 | 37218 ft | 512 kts | 56° |
| 2026-05-04 13:22 | 28.20141 | 108.59648 | 37235 ft | 511 kts | 55° |
| 2026-05-04 13:23 | 28.23377 | 108.66865 | 37228 ft | 513 kts | 56° |
| 2026-05-04 13:23 | 28.26598 | 108.74062 | 37232 ft | 512 kts | 56° |
| 2026-05-04 13:24 | 28.29821 | 108.81273 | 37233 ft | 514 kts | 56° |
| 2026-05-04 13:24 | 28.33047 | 108.88509 | 37214 ft | 513 kts | 56° |
| 2026-05-04 13:25 | 28.37888 | 108.99387 | 37199 ft | 513 kts | 56° |
| 2026-05-04 13:25 | 28.41116 | 109.06657 | 37198 ft | 513 kts | 56° |
| 2026-05-04 13:26 | 28.44321 | 109.13888 | 37194 ft | 513 kts | 56° |
| 2026-05-04 13:26 | 28.47533 | 109.21166 | 37191 ft | 515 kts | 56° |
| 2026-05-04 13:27 | 28.50739 | 109.28447 | 37186 ft | 516 kts | 56° |
| 2026-05-04 13:27 | 28.53935 | 109.35719 | 37190 ft | 515 kts | 56° |
| 2026-05-04 13:28 | 28.57145 | 109.43035 | 37199 ft | 514 kts | 56° |
| 2026-05-04 13:28 | 28.59919 | 109.50571 | 37206 ft | 522 kts | 62° |
| 2026-05-04 13:29 | 28.62562 | 109.58291 | 37198 ft | 522 kts | 62° |
| 2026-05-04 13:29 | 28.65190 | 109.65980 | 37185 ft | 522 kts | 62° |
| 2026-05-04 13:30 | 28.67928 | 109.73614 | 37169 ft | 521 kts | 61° |
| 2026-05-04 13:30 | 28.70683 | 109.81294 | 37176 ft | 521 kts | 61° |
| 2026-05-04 13:31 | 28.73406 | 109.88902 | 37194 ft | 521 kts | 61° |
| 2026-05-04 13:31 | 28.76143 | 109.96567 | 37199 ft | 522 kts | 61° |
| 2026-05-04 13:32 | 28.78873 | 110.04227 | 37210 ft | 524 kts | 61° |
| 2026-05-04 13:32 | 28.81609 | 110.11924 | 37204 ft | 522 kts | 61° |
| 2026-05-04 13:33 | 28.84326 | 110.19577 | 37198 ft | 526 kts | 62° |
| 2026-05-04 13:33 | 28.87061 | 110.27302 | 37195 ft | 525 kts | 61° |
| 2026-05-04 13:34 | 28.89793 | 110.35035 | 37196 ft | 523 kts | 61° |
| 2026-05-04 13:34 | 28.92501 | 110.42714 | 37203 ft | 525 kts | 61° |
| 2026-05-04 13:35 | 28.96592 | 110.54349 | 37202 ft | 524 kts | 61° |
| 2026-05-04 13:36 | 28.99321 | 110.62129 | 37200 ft | 527 kts | 62° |
| 2026-05-04 13:36 | 29.02052 | 110.69933 | 37177 ft | 529 kts | 62° |
| 2026-05-04 13:37 | 29.04794 | 110.77700 | 37163 ft | 526 kts | 61° |
| 2026-05-04 13:37 | 29.07543 | 110.85453 | 37164 ft | 526 kts | 62° |
| 2026-05-04 13:38 | 29.10296 | 110.93239 | 37169 ft | 526 kts | 62° |
| 2026-05-04 13:38 | 29.13048 | 111.01035 | 37169 ft | 529 kts | 62° |
| 2026-05-04 13:39 | 29.15796 | 111.08839 | 37164 ft | 529 kts | 62° |
| 2026-05-04 13:39 | 29.18523 | 111.16599 | 37161 ft | 528 kts | 62° |
| 2026-05-04 13:40 | 29.21256 | 111.24394 | 37356 ft | 526 kts | 62° |
| 2026-05-04 13:40 | 29.22616 | 111.28281 | 37505 ft | 525 kts | 62° |
| 2026-05-04 13:40 | 29.23971 | 111.32156 | 37653 ft | 524 kts | 62° |
| 2026-05-04 13:40 | 29.25326 | 111.36037 | 37841 ft | 522 kts | 61° |
| 2026-05-04 13:41 | 29.26663 | 111.39868 | 38028 ft | 521 kts | 62° |
| 2026-05-04 13:41 | 29.28011 | 111.43739 | 38218 ft | 520 kts | 62° |
| 2026-05-04 13:41 | 29.29355 | 111.47595 | 38403 ft | 519 kts | 62° |
| 2026-05-04 13:42 | 29.32010 | 111.55235 | 38789 ft | 517 kts | 62° |
| 2026-05-04 13:42 | 29.33346 | 111.59084 | 38975 ft | 516 kts | 62° |
| 2026-05-04 13:42 | 29.34677 | 111.62904 | 39144 ft | 514 kts | 60° |
| 2026-05-04 13:42 | 29.36290 | 111.66533 | 39136 ft | 507 kts | 51° |
| 2026-05-04 13:43 | 29.40163 | 111.73252 | 39139 ft | 508 kts | 49° |
| 2026-05-04 13:43 | 29.44057 | 111.80050 | 39138 ft | 512 kts | 49° |
| 2026-05-04 13:44 | 29.47994 | 111.86942 | 39135 ft | 515 kts | 49° |
| 2026-05-04 13:44 | 29.51933 | 111.93848 | 39141 ft | 518 kts | 49° |
| 2026-05-04 13:45 | 29.55878 | 112.00777 | 39139 ft | 521 kts | 49° |
| 2026-05-04 13:45 | 29.59856 | 112.07775 | 39142 ft | 524 kts | 50° |
| 2026-05-04 13:46 | 29.63854 | 112.14821 | 39141 ft | 526 kts | 50° |
| 2026-05-04 13:46 | 29.67848 | 112.21871 | 39144 ft | 528 kts | 50° |
| 2026-05-04 13:47 | 29.71871 | 112.28988 | 39145 ft | 530 kts | 50° |
| 2026-05-04 13:47 | 29.75881 | 112.36112 | 39145 ft | 532 kts | 50° |
| 2026-05-04 13:48 | 29.79891 | 112.43269 | 39144 ft | 533 kts | 50° |
| 2026-05-04 13:48 | 29.83910 | 112.50455 | 39150 ft | 534 kts | 50° |
| 2026-05-04 13:49 | 29.87950 | 112.57693 | 39150 ft | 535 kts | 50° |
| 2026-05-04 13:49 | 29.91966 | 112.64899 | 39157 ft | 535 kts | 50° |
| 2026-05-04 13:50 | 29.95997 | 112.72145 | 39136 ft | 535 kts | 50° |
| 2026-05-04 13:50 | 30.00032 | 112.79411 | 39141 ft | 535 kts | 51° |
| 2026-05-04 13:51 | 30.03997 | 112.86563 | 39141 ft | 526 kts | 51° |
| 2026-05-04 13:51 | 30.07800 | 112.93889 | 39148 ft | 535 kts | 59° |
| 2026-05-04 13:52 | 30.10000 | 113.02162 | 39159 ft | 548 kts | 78° |
| 2026-05-04 13:52 | 30.10333 | 113.06528 | 39160 ft | 552 kts | 88° |
| 2026-05-04 13:53 | 30.09471 | 113.15389 | 39161 ft | 555 kts | 101° |
| 2026-05-04 13:53 | 30.08003 | 113.24152 | 39158 ft | 556 kts | 101° |
| 2026-05-04 13:54 | 30.05786 | 113.37328 | 39158 ft | 558 kts | 101° |
| 2026-05-04 13:55 | 30.03558 | 113.50514 | 39161 ft | 560 kts | 101° |
| 2026-05-04 13:55 | 30.01320 | 113.63728 | 39162 ft | 562 kts | 101° |
| 2026-05-04 13:56 | 29.99835 | 113.72591 | 39145 ft | 562 kts | 98° |
| 2026-05-04 13:56 | 29.99710 | 113.81578 | 39156 ft | 558 kts | 80° |
| 2026-05-04 13:57 | 30.00429 | 113.85950 | 39158 ft | 553 kts | 71° |
| 2026-05-04 13:58 | 30.07488 | 114.01130 | 39161 ft | 541 kts | 55° |
| 2026-05-04 13:58 | 30.09934 | 114.09409 | 39212 ft | 551 kts | 72° |
| 2026-05-04 13:58 | 30.11059 | 114.13668 | 39179 ft | 549 kts | 68° |
| 2026-05-04 13:59 | 30.13471 | 114.22002 | 39164 ft | 550 kts | 67° |
| 2026-05-04 13:59 | 30.15878 | 114.30268 | 38676 ft | 529 kts | 67° |
| 2026-05-04 14:00 | 30.17049 | 114.34292 | 38391 ft | 532 kts | 67° |
| 2026-05-04 14:00 | 30.19417 | 114.42446 | 37872 ft | 546 kts | 67° |
| 2026-05-04 14:00 | 30.20635 | 114.46648 | 37646 ft | 547 kts | 68° |
| 2026-05-04 14:01 | 30.21825 | 114.50764 | 37431 ft | 545 kts | 68° |
| 2026-05-04 14:01 | 30.23018 | 114.54897 | 37205 ft | 543 kts | 68° |
| 2026-05-04 14:01 | 30.25418 | 114.63219 | 36776 ft | 543 kts | 68° |
| 2026-05-04 14:02 | 30.26600 | 114.67324 | 36552 ft | 544 kts | 69° |
| 2026-05-04 14:02 | 30.27805 | 114.71516 | 36302 ft | 542 kts | 68° |
| 2026-05-04 14:02 | 30.28979 | 114.75608 | 36058 ft | 543 kts | 69° |
| 2026-05-04 14:02 | 30.30173 | 114.79774 | 35822 ft | 542 kts | 69° |
| 2026-05-04 14:03 | 30.31349 | 114.83881 | 35575 ft | 542 kts | 69° |
| 2026-05-04 14:03 | 30.32532 | 114.88019 | 35345 ft | 542 kts | 69° |
| 2026-05-04 14:03 | 30.33716 | 114.92171 | 35206 ft | 540 kts | 69° |
| 2026-05-04 14:04 | 30.37262 | 115.04620 | 35192 ft | 543 kts | 69° |
| 2026-05-04 14:04 | 30.39605 | 115.12935 | 35193 ft | 543 kts | 72° |
| 2026-05-04 14:05 | 30.40679 | 115.21533 | 35200 ft | 546 kts | 90° |
| 2026-05-04 14:05 | 30.40416 | 115.25959 | 35200 ft | 545 kts | 100° |
| 2026-05-04 14:06 | 30.39117 | 115.34605 | 35205 ft | 547 kts | 96° |
| 2026-05-04 14:06 | 30.37697 | 115.43138 | 35226 ft | 536 kts | 120° |
| 2026-05-04 14:07 | 30.34049 | 115.50550 | 35207 ft | 529 kts | 127° |
| 2026-05-04 14:07 | 30.29987 | 115.57677 | 35206 ft | 530 kts | 132° |
| 2026-05-04 14:08 | 30.25387 | 115.64327 | 35211 ft | 524 kts | 139° |
| 2026-05-04 14:08 | 30.20396 | 115.70288 | 35192 ft | 517 kts | 144° |
| 2026-05-04 14:09 | 30.13259 | 115.79815 | 35198 ft | 536 kts | 125° |
| 2026-05-04 14:10 | 30.07432 | 115.90771 | 35196 ft | 533 kts | 130° |
| 2026-05-04 14:10 | 30.03377 | 115.97913 | 35193 ft | 533 kts | 129° |
| 2026-05-04 14:11 | 29.99280 | 116.05108 | 35189 ft | 535 kts | 130° |
| 2026-05-04 14:11 | 29.93155 | 116.15839 | 35196 ft | 535 kts | 130° |
| 2026-05-04 14:12 | 29.89057 | 116.23002 | 35201 ft | 536 kts | 130° |
| 2026-05-04 14:13 | 29.82920 | 116.33708 | 35204 ft | 534 kts | 130° |
| 2026-05-04 14:13 | 29.78822 | 116.40842 | 35209 ft | 534 kts | 130° |
| 2026-05-04 14:14 | 29.74801 | 116.48090 | 35212 ft | 542 kts | 123° |
| 2026-05-04 14:14 | 29.72155 | 116.56325 | 34918 ft | 554 kts | 105° |
| 2026-05-04 14:14 | 29.71579 | 116.60667 | 34720 ft | 558 kts | 96° |
| 2026-05-04 14:15 | 29.71972 | 116.69610 | 34291 ft | 556 kts | 79° |
| 2026-05-04 14:15 | 29.74362 | 116.77876 | 33830 ft | 545 kts | 60° |
| 2026-05-04 14:16 | 29.77013 | 116.86057 | 33386 ft | 553 kts | 83° |
| 2026-05-04 14:16 | 29.77052 | 116.90472 | 33198 ft | 549 kts | 98° |
| 2026-05-04 14:17 | 29.75940 | 116.99113 | 32784 ft | 549 kts | 96° |
| 2026-05-04 14:17 | 29.75871 | 117.03519 | 32568 ft | 550 kts | 92° |
| 2026-05-04 14:17 | 29.75778 | 117.12283 | 32127 ft | 546 kts | 92° |
| 2026-05-04 14:18 | 29.75721 | 117.16652 | 31904 ft | 543 kts | 92° |
| 2026-05-04 14:18 | 29.75604 | 117.25295 | 31460 ft | 539 kts | 92° |
| 2026-05-04 14:19 | 29.75483 | 117.33779 | 30950 ft | 532 kts | 92° |
| 2026-05-04 14:19 | 29.75420 | 117.38048 | 30684 ft | 529 kts | 92° |
| 2026-05-04 14:19 | 29.75356 | 117.42264 | 30424 ft | 524 kts | 92° |
| 2026-05-04 14:19 | 29.75293 | 117.46384 | 30169 ft | 521 kts | 92° |
| 2026-05-04 14:20 | 29.75228 | 117.50525 | 29905 ft | 518 kts | 92° |
| 2026-05-04 14:20 | 29.75162 | 117.54688 | 29638 ft | 514 kts | 92° |
| 2026-05-04 14:20 | 29.75095 | 117.58742 | 29356 ft | 512 kts | 92° |
| 2026-05-04 14:21 | 29.74959 | 117.66879 | 28772 ft | 504 kts | 93° |
| 2026-05-04 14:21 | 29.74890 | 117.70874 | 28451 ft | 501 kts | 93° |
| 2026-05-04 14:21 | 29.74821 | 117.74837 | 28140 ft | 497 kts | 92° |
| 2026-05-04 14:21 | 29.74750 | 117.78809 | 27832 ft | 493 kts | 93° |
| 2026-05-04 14:22 | 29.74679 | 117.82747 | 27516 ft | 490 kts | 93° |
| 2026-05-04 14:22 | 29.74607 | 117.86631 | 27204 ft | 487 kts | 93° |
| 2026-05-04 14:22 | 29.74534 | 117.90503 | 26900 ft | 482 kts | 92° |
| 2026-05-04 14:22 | 29.74462 | 117.94322 | 26438 ft | 481 kts | 92° |
| 2026-05-04 14:23 | 29.74316 | 118.01868 | 25154 ft | 464 kts | 92° |
| 2026-05-04 14:23 | 29.74241 | 118.05581 | 24527 ft | 467 kts | 92° |
| 2026-05-04 14:23 | 29.74165 | 118.09364 | 23936 ft | 484 kts | 92° |
| 2026-05-04 14:24 | 29.74087 | 118.13206 | 23327 ft | 485 kts | 92° |
| 2026-05-04 14:24 | 29.74007 | 118.17041 | 22712 ft | 478 kts | 92° |
| 2026-05-04 14:24 | 29.73927 | 118.20872 | 22080 ft | 471 kts | 92° |
| 2026-05-04 14:24 | 29.73846 | 118.24558 | 21470 ft | 465 kts | 93° |
| 2026-05-04 14:25 | 29.73570 | 118.28249 | 20850 ft | 459 kts | 97° |
| 2026-05-04 14:25 | 29.72926 | 118.35418 | 19636 ft | 446 kts | 96° |
| 2026-05-04 14:25 | 29.72607 | 118.38950 | 19028 ft | 441 kts | 96° |
| 2026-05-04 14:26 | 29.72293 | 118.42429 | 18415 ft | 436 kts | 96° |
| 2026-05-04 14:26 | 29.71983 | 118.45845 | 17808 ft | 431 kts | 95° |
| 2026-05-04 14:26 | 29.71672 | 118.49264 | 17210 ft | 425 kts | 95° |
| 2026-05-04 14:26 | 29.71535 | 118.52576 | 16598 ft | 417 kts | 82° |
| 2026-05-04 14:27 | 29.72164 | 118.55779 | 16022 ft | 410 kts | 76° |
| 2026-05-04 14:27 | 29.72684 | 118.58973 | 15423 ft | 405 kts | 79° |
| 2026-05-04 14:27 | 29.73108 | 118.62141 | 14813 ft | 393 kts | 81° |
| 2026-05-04 14:27 | 29.73489 | 118.65185 | 14193 ft | 381 kts | 81° |
| 2026-05-04 14:28 | 29.73849 | 118.68130 | 13979 ft | 358 kts | 81° |
| 2026-05-04 14:28 | 29.74184 | 118.70902 | 13951 ft | 347 kts | 81° |
| 2026-05-04 14:28 | 29.74519 | 118.73689 | 13962 ft | 352 kts | 81° |
| 2026-05-04 14:28 | 29.74853 | 118.76467 | 13960 ft | 355 kts | 81° |
| 2026-05-04 14:29 | 29.75525 | 118.82085 | 13741 ft | 355 kts | 81° |
| 2026-05-04 14:29 | 29.76189 | 118.87659 | 13156 ft | 349 kts | 82° |
| 2026-05-04 14:30 | 29.76516 | 118.90408 | 12864 ft | 346 kts | 81° |
| 2026-05-04 14:30 | 29.76837 | 118.93120 | 12574 ft | 343 kts | 81° |
| 2026-05-04 14:30 | 29.77477 | 118.98524 | 12020 ft | 338 kts | 81° |
| 2026-05-04 14:31 | 29.77791 | 119.01190 | 11990 ft | 337 kts | 81° |
| 2026-05-04 14:31 | 29.78423 | 119.06554 | 11979 ft | 340 kts | 81° |
| 2026-05-04 14:32 | 29.79056 | 119.11951 | 11979 ft | 340 kts | 81° |
| 2026-05-04 14:32 | 29.79370 | 119.14641 | 11979 ft | 340 kts | 81° |
| 2026-05-04 14:32 | 29.79685 | 119.17340 | 11978 ft | 339 kts | 81° |
| 2026-05-04 14:32 | 29.80001 | 119.20049 | 11977 ft | 340 kts | 81° |
| 2026-05-04 14:33 | 29.80311 | 119.22713 | 11977 ft | 340 kts | 81° |
| 2026-05-04 14:33 | 29.80625 | 119.25414 | 11981 ft | 340 kts | 81° |
| 2026-05-04 14:33 | 29.80939 | 119.28124 | 11978 ft | 339 kts | 81° |
| 2026-05-04 14:33 | 29.81246 | 119.30778 | 11974 ft | 339 kts | 81° |
| 2026-05-04 14:34 | 29.81558 | 119.33484 | 11972 ft | 339 kts | 81° |
| 2026-05-04 14:34 | 29.81869 | 119.36176 | 11976 ft | 339 kts | 81° |
| 2026-05-04 14:34 | 29.82180 | 119.38879 | 11974 ft | 339 kts | 81° |
| 2026-05-04 14:34 | 29.82486 | 119.41545 | 11972 ft | 340 kts | 81° |
| 2026-05-04 14:35 | 29.82798 | 119.44265 | 11965 ft | 340 kts | 81° |
| 2026-05-04 14:35 | 29.83107 | 119.46965 | 11965 ft | 341 kts | 81° |
| 2026-05-04 14:35 | 29.83412 | 119.49635 | 11964 ft | 340 kts | 81° |
| 2026-05-04 14:35 | 29.83723 | 119.52363 | 11963 ft | 340 kts | 81° |
| 2026-05-04 14:36 | 29.84029 | 119.55054 | 11964 ft | 341 kts | 81° |
| 2026-05-04 14:36 | 29.84335 | 119.57745 | 11795 ft | 332 kts | 81° |
| 2026-05-04 14:36 | 29.84625 | 119.60311 | 11595 ft | 314 kts | 81° |
| 2026-05-04 14:36 | 29.84902 | 119.62758 | 11183 ft | 306 kts | 81° |
| 2026-05-04 14:37 | 29.85174 | 119.65163 | 10781 ft | 298 kts | 81° |
| 2026-05-04 14:37 | 29.85436 | 119.67489 | 10383 ft | 292 kts | 81° |
| 2026-05-04 14:37 | 29.85698 | 119.69805 | 9985 ft | 289 kts | 81° |
| 2026-05-04 14:37 | 29.85953 | 119.72075 | 9596 ft | 288 kts | 81° |
| 2026-05-04 14:38 | 29.86209 | 119.74353 | 9207 ft | 287 kts | 81° |
| 2026-05-04 14:38 | 29.86467 | 119.76659 | 8811 ft | 286 kts | 81° |
| 2026-05-04 14:38 | 29.86720 | 119.78920 | 8422 ft | 284 kts | 81° |
| 2026-05-04 14:38 | 29.86972 | 119.81169 | 8047 ft | 282 kts | 81° |
| 2026-05-04 14:39 | 29.87218 | 119.83374 | 7972 ft | 279 kts | 81° |
| 2026-05-04 14:39 | 29.87465 | 119.85590 | 7959 ft | 280 kts | 81° |
| 2026-05-04 14:39 | 29.87714 | 119.87829 | 7939 ft | 281 kts | 81° |
| 2026-05-04 14:40 | 29.88211 | 119.92309 | 7932 ft | 282 kts | 81° |
| 2026-05-04 14:40 | 29.88458 | 119.94539 | 7931 ft | 282 kts | 81° |
| 2026-05-04 14:40 | 29.88705 | 119.96770 | 7931 ft | 282 kts | 81° |
| 2026-05-04 14:40 | 29.88951 | 119.99007 | 7935 ft | 281 kts | 81° |
| 2026-05-04 14:41 | 29.89198 | 120.01250 | 7939 ft | 281 kts | 81° |
| 2026-05-04 14:41 | 29.89444 | 120.03485 | 7853 ft | 284 kts | 81° |
| 2026-05-04 14:41 | 29.90328 | 120.07850 | 7248 ft | 277 kts | 60° |
| 2026-05-04 14:42 | 29.92153 | 120.11716 | 6662 ft | 274 kts | 60° |
| 2026-05-04 14:42 | 29.93067 | 120.13647 | 6359 ft | 274 kts | 60° |
| 2026-05-04 14:42 | 29.93970 | 120.15552 | 6065 ft | 273 kts | 60° |
| 2026-05-04 14:43 | 29.94878 | 120.17472 | 5940 ft | 270 kts | 60° |
| 2026-05-04 14:43 | 29.95785 | 120.19391 | 5925 ft | 271 kts | 60° |
| 2026-05-04 14:43 | 29.96685 | 120.21294 | 5929 ft | 270 kts | 60° |
| 2026-05-04 14:43 | 29.97575 | 120.23178 | 5933 ft | 270 kts | 60° |
| 2026-05-04 14:44 | 29.98476 | 120.25085 | 5925 ft | 272 kts | 60° |
| 2026-05-04 14:44 | 29.99390 | 120.27021 | 5927 ft | 272 kts | 60° |
| 2026-05-04 14:44 | 30.00260 | 120.28944 | 5925 ft | 273 kts | 62° |
| 2026-05-04 14:44 | 30.01138 | 120.30910 | 5925 ft | 273 kts | 61° |
| 2026-05-04 14:45 | 30.02010 | 120.32861 | 5926 ft | 272 kts | 62° |
| 2026-05-04 14:45 | 30.02874 | 120.34799 | 5933 ft | 272 kts | 61° |
| 2026-05-04 14:45 | 30.03746 | 120.36753 | 5931 ft | 272 kts | 61° |
| 2026-05-04 14:45 | 30.04604 | 120.38678 | 5925 ft | 272 kts | 62° |
| 2026-05-04 14:46 | 30.05477 | 120.40640 | 5927 ft | 272 kts | 62° |
| 2026-05-04 14:46 | 30.06320 | 120.42534 | 5910 ft | 260 kts | 61° |
| 2026-05-04 14:46 | 30.07119 | 120.44331 | 5897 ft | 240 kts | 61° |
| 2026-05-04 14:46 | 30.07859 | 120.45994 | 5902 ft | 226 kts | 61° |
| 2026-05-04 14:47 | 30.08577 | 120.47607 | 5925 ft | 226 kts | 61° |
| 2026-05-04 14:47 | 30.09290 | 120.49210 | 5928 ft | 228 kts | 61° |
| 2026-05-04 14:47 | 30.10023 | 120.50861 | 5930 ft | 228 kts | 61° |
| 2026-05-04 14:47 | 30.10744 | 120.52483 | 5942 ft | 228 kts | 61° |
| 2026-05-04 14:48 | 30.11478 | 120.54136 | 5747 ft | 231 kts | 61° |
| 2026-05-04 14:48 | 30.12198 | 120.55759 | 5558 ft | 228 kts | 61° |
| 2026-05-04 14:48 | 30.12920 | 120.57390 | 5305 ft | 228 kts | 62° |
| 2026-05-04 14:48 | 30.13641 | 120.59019 | 5044 ft | 228 kts | 62° |
| 2026-05-04 14:49 | 30.14361 | 120.60650 | 4948 ft | 225 kts | 62° |
| 2026-05-04 14:49 | 30.15080 | 120.62275 | 4933 ft | 226 kts | 62° |
| 2026-05-04 14:49 | 30.15789 | 120.63882 | 4934 ft | 227 kts | 62° |
| 2026-05-04 14:49 | 30.16517 | 120.65531 | 4932 ft | 228 kts | 63° |
| 2026-05-04 14:50 | 30.17234 | 120.67155 | 4938 ft | 227 kts | 63° |
| 2026-05-04 14:50 | 30.17957 | 120.68794 | 4677 ft | 230 kts | 63° |
| 2026-05-04 14:50 | 30.18682 | 120.70439 | 4357 ft | 227 kts | 63° |
| 2026-05-04 14:50 | 30.19395 | 120.72056 | 4058 ft | 225 kts | 63° |
| 2026-05-04 14:51 | 30.20105 | 120.73667 | 3759 ft | 227 kts | 64° |
| 2026-05-04 14:51 | 30.20837 | 120.75292 | 3450 ft | 227 kts | 57° |
| 2026-05-04 14:51 | 30.22050 | 120.76371 | 3144 ft | 227 kts | 15° |
| 2026-05-04 14:51 | 30.23612 | 120.76282 | 2875 ft | 225 kts | 336° |
| 2026-05-04 14:52 | 30.25022 | 120.75504 | 2612 ft | 226 kts | 332° |
| 2026-05-04 14:52 | 30.26442 | 120.74687 | 2308 ft | 226 kts | 332° |
| 2026-05-04 14:52 | 30.27854 | 120.73870 | 2053 ft | 224 kts | 332° |
| 2026-05-04 14:52 | 30.29245 | 120.73061 | 2039 ft | 221 kts | 332° |
| 2026-05-04 14:53 | 30.30565 | 120.72291 | 2045 ft | 201 kts | 332° |
| 2026-05-04 14:53 | 30.31779 | 120.71582 | 2019 ft | 192 kts | 332° |
| 2026-05-04 14:53 | 30.32957 | 120.70892 | 2026 ft | 192 kts | 330° |
| 2026-05-04 14:53 | 30.33860 | 120.69792 | 2024 ft | 189 kts | 288° |
| 2026-05-04 14:54 | 30.33852 | 120.68329 | 2043 ft | 183 kts | 246° |
| 2026-05-04 14:54 | 30.33313 | 120.66997 | 2042 ft | 183 kts | 242° |
| 2026-05-04 14:54 | 30.32775 | 120.65733 | 1999 ft | 169 kts | 241° |
| 2026-05-04 14:54 | 30.32263 | 120.64539 | 1994 ft | 162 kts | 242° |
| 2026-05-04 14:55 | 30.31792 | 120.63394 | 2047 ft | 152 kts | 241° |
| 2026-05-04 14:55 | 30.31317 | 120.62283 | 2011 ft | 157 kts | 241° |
| 2026-05-04 14:55 | 30.30823 | 120.61148 | 2009 ft | 160 kts | 241° |
| 2026-05-04 14:55 | 30.30320 | 120.60003 | 1995 ft | 160 kts | 240° |
| 2026-05-04 14:56 | 30.29807 | 120.58843 | 1994 ft | 161 kts | 240° |
| 2026-05-04 14:56 | 30.29290 | 120.57676 | 1991 ft | 161 kts | 240° |
| 2026-05-04 14:56 | 30.28779 | 120.56526 | 1993 ft | 161 kts | 240° |
| 2026-05-04 14:56 | 30.28263 | 120.55363 | 1930 ft | 164 kts | 240° |
| 2026-05-04 14:57 | 30.27742 | 120.54190 | 1736 ft | 163 kts | 240° |
| 2026-05-04 14:57 | 30.27239 | 120.53056 | 1516 ft | 151 kts | 240° |
| 2026-05-04 14:57 | 30.26784 | 120.52033 | 1312 ft | 136 kts | 240° |
| 2026-05-04 14:57 | 30.26364 | 120.51090 | 1140 ft | 129 kts | 240° |
| 2026-05-04 14:58 | 30.25950 | 120.50162 | 992 ft | 131 kts | 240° |
| 2026-05-04 14:58 | 30.25526 | 120.49209 | 825 ft | 133 kts | 240° |
| 2026-05-04 14:58 | 30.25117 | 120.48309 | 677 ft | 132 kts | 239° |
| 2026-05-04 14:58 | 30.24711 | 120.47401 | 525 ft | 131 kts | 242° |
| 2026-05-04 14:59 | 30.24293 | 120.46457 | 322 ft | 131 kts | 240° |
| 2026-05-04 14:59 | 30.23877 | 120.45529 | 160 ft | 130 kts | 242° |
| 2026-05-04 14:59 | 30.23143 | 120.43881 | 27 ft | 74 kts | 241° |
| 2026-05-04 15:00 | 30.22965 | 120.43479 | 27 ft | 49 kts | 243° |
| 2026-05-04 15:00 | 30.22874 | 120.43215 | 27 ft | 23 kts | 263° |
| 2026-05-04 15:00 | 30.22871 | 120.43079 | 27 ft | 13 kts | 271° |
| 2026-05-04 15:01 | 30.22871 | 120.43052 | 27 ft | 1 kts | 271° |
| 2026-05-04 15:01 | 30.22873 | 120.43019 | 27 ft | 7 kts | 281° |
| 2026-05-04 15:01 | 30.22909 | 120.42977 | 27 ft | 8 kts | 3° |
| 2026-05-04 15:01 | 30.22956 | 120.43018 | 27 ft | 8 kts | 63° |
| 2026-05-04 15:02 | 30.22989 | 120.43098 | 27 ft | 14 kts | 63° |
| 2026-05-04 15:02 | 30.23036 | 120.43206 | 27 ft | 15 kts | 64° |
| 2026-05-04 15:02 | 30.23085 | 120.43321 | 27 ft | 16 kts | 64° |
| 2026-05-04 15:02 | 30.23140 | 120.43440 | 27 ft | 17 kts | 62° |
| 2026-05-04 15:03 | 30.23198 | 120.43569 | 27 ft | 18 kts | 64° |
| 2026-05-04 15:03 | 30.23256 | 120.43702 | 27 ft | 19 kts | 63° |
| 2026-05-04 15:03 | 30.23309 | 120.43822 | 27 ft | 16 kts | 62° |
| 2026-05-04 15:03 | 30.23371 | 120.43960 | 27 ft | 22 kts | 63° |
| 2026-05-04 15:04 | 30.23492 | 120.43958 | 27 ft | 20 kts | 334° |
| 2026-05-04 15:04 | 30.23618 | 120.43882 | 27 ft | 21 kts | 333° |
| 2026-05-04 15:04 | 30.23754 | 120.43804 | 27 ft | 21 kts | 333° |
| 2026-05-04 15:04 | 30.23892 | 120.43722 | 27 ft | 22 kts | 330° |
| 2026-05-04 15:05 | 30.24035 | 120.43636 | 27 ft | 23 kts | 333° |
| 2026-05-04 15:05 | 30.24182 | 120.43552 | 27 ft | 23 kts | 334° |
| 2026-05-04 15:05 | 30.24330 | 120.43463 | 27 ft | 23 kts | 332° |
| 2026-05-04 15:05 | 30.24476 | 120.43375 | 27 ft | 23 kts | 336° |
| 2026-05-04 15:06 | 30.24514 | 120.43266 | 27 ft | 18 kts | 245° |
| 2026-05-04 15:06 | 30.24452 | 120.43122 | 27 ft | 19 kts | 244° |
| 2026-05-04 15:06 | 30.24397 | 120.42998 | 27 ft | 20 kts | 243° |
| 2026-05-04 15:07 | 30.24263 | 120.42709 | 27 ft | 19 kts | 243° |
| 2026-05-04 15:07 | 30.24199 | 120.42564 | 27 ft | 20 kts | 243° |
| 2026-05-04 15:07 | 30.24143 | 120.42486 | 27 ft | 10 kts | 177° |
| 2026-05-04 15:07 | 30.24076 | 120.42526 | 27 ft | 11 kts | 154° |
| 2026-05-04 15:08 | 30.24008 | 120.42564 | 27 ft | 9 kts | 164° |
| 2026-05-04 15:08 | 30.23985 | 120.42551 | 27 ft | 1 kts | 244° |
| 2026-05-04 15:08 | 30.23972 | 120.42522 | 27 ft | 3 kts | 244° |
| 2026-05-04 15:08 | 30.23969 | 120.42513 | 27 ft | 0 kts | 243° |